Sweet Lake, Louisiana
Current Conditions -  °F | °C
As of 5:53 PM on Friday 24 Oct 2014 (Local Time) from KLCH Reporting Station
Clear Clear  
Wind Chill: 74°   Ceiling: Unl
Heat Index: 74°   Visibility: 10mi
Dew Point: 48°   Wind: 8mph
Humidity: 40%   Direction: 30°NNE
Pressure: 30.09"   Gusts: NA
Location:  30.1766°N, 93.2305°W
Report Text: KLCH 242253Z 03007KT 10SM CLR 23/09 A3009 RMK AO2 SLP197 T02330089
Loading
Personal Weather Stations






























Interactive Weather Map
Tropical Storm Tracking
New forecast layout! Learn more

10-Day Weather Forecast

Advertisements
Track Severe Weather on mobile